sensor_id;sensor_type;location;lat;lon;timestamp;P1;durP1;ratioP1;P2;durP2;ratioP2
23434;SDS011;11890;45.380;11.028;2024-02-21T00:02:05;63.90;;;39.08;;
23434;SDS011;11890;45.380;11.028;2024-02-21T00:04:33;65.80;;;38.00;;
23434;SDS011;11890;45.380;11.028;2024-02-21T00:07:02;68.63;;;41.40;;
23434;SDS011;11890;45.380;11.028;2024-02-21T00:09:30;67.47;;;39.88;;
23434;SDS011;11890;45.380;11.028;2024-02-21T00:11:58;67.60;;;39.75;;
23434;SDS011;11890;45.380;11.028;2024-02-21T00:14:26;65.30;;;38.30;;
23434;SDS011;11890;45.380;11.028;2024-02-21T00:16:54;70.70;;;41.47;;
23434;SDS011;11890;45.380;11.028;2024-02-21T00:19:21;65.10;;;39.53;;
23434;SDS011;11890;45.380;11.028;2024-02-21T00:21:49;67.07;;;40.50;;
23434;SDS011;11890;45.380;11.028;2024-02-21T00:24:17;69.25;;;40.35;;
23434;SDS011;11890;45.380;11.028;2024-02-21T00:26:45;70.00;;;40.85;;
23434;SDS011;11890;45.380;11.028;2024-02-21T00:29:12;66.18;;;38.72;;
23434;SDS011;11890;45.380;11.028;2024-02-21T00:31:40;60.97;;;36.60;;
23434;SDS011;11890;45.380;11.028;2024-02-21T00:34:08;63.05;;;38.65;;
23434;SDS011;11890;45.380;11.028;2024-02-21T00:36:37;69.88;;;38.63;;
23434;SDS011;11890;45.380;11.028;2024-02-21T00:39:04;67.50;;;38.78;;
23434;SDS011;11890;45.380;11.028;2024-02-21T00:41:33;62.55;;;36.72;;
23434;SDS011;11890;45.380;11.028;2024-02-21T00:44:00;64.72;;;37.30;;
23434;SDS011;11890;45.380;11.028;2024-02-21T00:46:28;67.05;;;39.95;;
23434;SDS011;11890;45.380;11.028;2024-02-21T00:48:56;66.15;;;36.22;;
23434;SDS011;11890;45.380;11.028;2024-02-21T00:51:24;65.47;;;38.50;;
23434;SDS011;11890;45.380;11.028;2024-02-21T00:53:51;67.05;;;40.00;;
23434;SDS011;11890;45.380;11.028;2024-02-21T00:56:19;69.07;;;40.28;;
23434;SDS011;11890;45.380;11.028;2024-02-21T00:58:47;62.38;;;37.00;;
23434;SDS011;11890;45.380;11.028;2024-02-21T01:01:20;66.68;;;37.80;;
23434;SDS011;11890;45.380;11.028;2024-02-21T01:03:49;66.25;;;37.95;;
23434;SDS011;11890;45.380;11.028;2024-02-21T01:06:17;63.33;;;35.53;;
23434;SDS011;11890;45.380;11.028;2024-02-21T01:08:48;63.72;;;37.25;;
23434;SDS011;11890;45.380;11.028;2024-02-21T01:11:16;69.53;;;38.67;;
23434;SDS011;11890;45.380;11.028;2024-02-21T01:13:44;63.95;;;37.90;;
23434;SDS011;11890;45.380;11.028;2024-02-21T01:16:11;70.97;;;39.75;;
23434;SDS011;11890;45.380;11.028;2024-02-21T01:18:39;65.35;;;37.60;;
23434;SDS011;11890;45.380;11.028;2024-02-21T01:21:07;60.50;;;36.42;;
23434;SDS011;11890;45.380;11.028;2024-02-21T01:23:36;60.40;;;37.13;;
23434;SDS011;11890;45.380;11.028;2024-02-21T01:26:04;64.22;;;37.10;;
23434;SDS011;11890;45.380;11.028;2024-02-21T01:28:35;63.70;;;38.70;;
23434;SDS011;11890;45.380;11.028;2024-02-21T01:31:04;65.63;;;36.05;;
23434;SDS011;11890;45.380;11.028;2024-02-21T01:33:32;61.25;;;34.70;;
23434;SDS011;11890;45.380;11.028;2024-02-21T01:36:02;58.65;;;35.75;;
23434;SDS011;11890;45.380;11.028;2024-02-21T01:38:30;65.70;;;37.03;;
23434;SDS011;11890;45.380;11.028;2024-02-21T01:40:59;62.67;;;36.30;;
23434;SDS011;11890;45.380;11.028;2024-02-21T01:43:27;71.13;;;39.03;;
23434;SDS011;11890;45.380;11.028;2024-02-21T01:45:55;64.75;;;39.20;;
23434;SDS011;11890;45.380;11.028;2024-02-21T01:48:23;64.05;;;36.90;;
23434;SDS011;11890;45.380;11.028;2024-02-21T01:50:52;71.93;;;39.92;;
23434;SDS011;11890;45.380;11.028;2024-02-21T01:53:22;68.93;;;38.28;;
23434;SDS011;11890;45.380;11.028;2024-02-21T01:55:50;72.38;;;41.17;;
23434;SDS011;11890;45.380;11.028;2024-02-21T01:58:18;89.07;;;45.92;;
23434;SDS011;11890;45.380;11.028;2024-02-21T02:00:46;87.20;;;46.28;;
23434;SDS011;11890;45.380;11.028;2024-02-21T02:03:14;96.60;;;44.63;;
23434;SDS011;11890;45.380;11.028;2024-02-21T02:05:44;85.20;;;44.60;;
23434;SDS011;11890;45.380;11.028;2024-02-21T02:08:16;84.78;;;44.38;;
23434;SDS011;11890;45.380;11.028;2024-02-21T02:10:44;97.82;;;46.45;;
23434;SDS011;11890;45.380;11.028;2024-02-21T02:13:13;88.50;;;45.83;;
23434;SDS011;11890;45.380;11.028;2024-02-21T02:15:41;84.55;;;45.10;;
23434;SDS011;11890;45.380;11.028;2024-02-21T02:18:09;81.00;;;42.10;;
23434;SDS011;11890;45.380;11.028;2024-02-21T02:20:37;79.25;;;43.33;;
23434;SDS011;11890;45.380;11.028;2024-02-21T02:25:36;76.90;;;41.00;;
23434;SDS011;11890;45.380;11.028;2024-02-21T02:28:05;74.65;;;41.15;;
23434;SDS011;11890;45.380;11.028;2024-02-21T02:30:33;76.07;;;40.42;;
23434;SDS011;11890;45.380;11.028;2024-02-21T02:33:02;89.55;;;51.70;;
23434;SDS011;11890;45.380;11.028;2024-02-21T02:35:30;74.18;;;40.80;;
23434;SDS011;11890;45.380;11.028;2024-02-21T02:37:58;72.40;;;40.75;;
23434;SDS011;11890;45.380;11.028;2024-02-21T02:40:25;73.45;;;39.40;;
23434;SDS011;11890;45.380;11.028;2024-02-21T02:42:53;82.20;;;43.67;;
23434;SDS011;11890;45.380;11.028;2024-02-21T02:45:24;78.22;;;41.45;;
23434;SDS011;11890;45.380;11.028;2024-02-21T02:47:53;77.40;;;41.10;;
23434;SDS011;11890;45.380;11.028;2024-02-21T02:50:21;73.72;;;40.65;;
23434;SDS011;11890;45.380;11.028;2024-02-21T02:52:49;68.15;;;37.45;;
23434;SDS011;11890;45.380;11.028;2024-02-21T02:55:16;70.85;;;39.45;;
23434;SDS011;11890;45.380;11.028;2024-02-21T02:57:44;64.43;;;38.20;;
23434;SDS011;11890;45.380;11.028;2024-02-21T03:00:13;64.18;;;38.22;;
23434;SDS011;11890;45.380;11.028;2024-02-21T03:02:42;65.65;;;38.67;;
23434;SDS011;11890;45.380;11.028;2024-02-21T03:05:17;67.22;;;39.03;;
23434;SDS011;11890;45.380;11.028;2024-02-21T03:07:45;67.72;;;37.85;;
23434;SDS011;11890;45.380;11.028;2024-02-21T03:10:13;65.07;;;37.50;;
23434;SDS011;11890;45.380;11.028;2024-02-21T03:12:44;65.78;;;38.45;;
23434;SDS011;11890;45.380;11.028;2024-02-21T03:15:12;66.95;;;37.22;;
23434;SDS011;11890;45.380;11.028;2024-02-21T03:17:40;62.10;;;36.10;;
23434;SDS011;11890;45.380;11.028;2024-02-21T03:20:08;66.90;;;35.75;;
23434;SDS011;11890;45.380;11.028;2024-02-21T03:22:38;55.97;;;33.80;;
23434;SDS011;11890;45.380;11.028;2024-02-21T03:25:06;56.53;;;32.75;;
23434;SDS011;11890;45.380;11.028;2024-02-21T03:27:34;57.33;;;33.22;;
23434;SDS011;11890;45.380;11.028;2024-02-21T03:30:02;53.63;;;31.92;;
23434;SDS011;11890;45.380;11.028;2024-02-21T03:32:31;49.60;;;30.35;;
23434;SDS011;11890;45.380;11.028;2024-02-21T03:34:59;48.92;;;28.70;;
23434;SDS011;11890;45.380;11.028;2024-02-21T03:37:27;55.25;;;28.70;;
23434;SDS011;11890;45.380;11.028;2024-02-21T03:39:54;48.50;;;27.92;;
23434;SDS011;11890;45.380;11.028;2024-02-21T03:42:22;41.95;;;25.80;;
23434;SDS011;11890;45.380;11.028;2024-02-21T03:44:50;46.17;;;26.13;;
23434;SDS011;11890;45.380;11.028;2024-02-21T03:47:17;40.58;;;24.77;;
23434;SDS011;11890;45.380;11.028;2024-02-21T03:49:45;42.88;;;25.67;;
23434;SDS011;11890;45.380;11.028;2024-02-21T03:52:13;39.75;;;23.20;;
23434;SDS011;11890;45.380;11.028;2024-02-21T03:54:40;38.63;;;22.15;;
23434;SDS011;11890;45.380;11.028;2024-02-21T03:57:08;37.13;;;22.35;;
23434;SDS011;11890;45.380;11.028;2024-02-21T03:59:36;35.47;;;20.83;;
23434;SDS011;11890;45.380;11.028;2024-02-21T04:02:10;37.42;;;20.83;;
23434;SDS011;11890;45.380;11.028;2024-02-21T04:04:42;32.30;;;20.05;;
23434;SDS011;11890;45.380;11.028;2024-02-21T04:07:10;33.63;;;20.02;;
23434;SDS011;11890;45.380;11.028;2024-02-21T04:09:37;31.85;;;19.60;;
23434;SDS011;11890;45.380;11.028;2024-02-21T04:12:05;36.53;;;20.40;;
23434;SDS011;11890;45.380;11.028;2024-02-21T04:14:33;32.97;;;19.52;;
23434;SDS011;11890;45.380;11.028;2024-02-21T04:17:01;35.17;;;20.35;;
23434;SDS011;11890;45.380;11.028;2024-02-21T04:19:30;31.38;;;19.00;;
23434;SDS011;11890;45.380;11.028;2024-02-21T04:21:58;30.13;;;19.30;;
23434;SDS011;11890;45.380;11.028;2024-02-21T04:24:25;30.92;;;18.23;;
23434;SDS011;11890;45.380;11.028;2024-02-21T04:26:53;28.40;;;16.88;;
23434;SDS011;11890;45.380;11.028;2024-02-21T04:29:21;27.23;;;16.83;;
23434;SDS011;11890;45.380;11.028;2024-02-21T04:31:50;24.13;;;14.70;;
23434;SDS011;11890;45.380;11.028;2024-02-21T04:34:17;24.85;;;14.40;;
23434;SDS011;11890;45.380;11.028;2024-02-21T04:36:45;33.45;;;14.60;;
23434;SDS011;11890;45.380;11.028;2024-02-21T04:39:13;24.85;;;14.23;;
23434;SDS011;11890;45.380;11.028;2024-02-21T04:41:41;22.95;;;13.68;;
23434;SDS011;11890;45.380;11.028;2024-02-21T04:44:08;21.10;;;12.20;;
23434;SDS011;11890;45.380;11.028;2024-02-21T04:46:36;21.63;;;11.88;;
23434;SDS011;11890;45.380;11.028;2024-02-21T04:49:04;18.83;;;11.38;;
23434;SDS011;11890;45.380;11.028;2024-02-21T04:51:31;18.02;;;10.88;;
23434;SDS011;11890;45.380;11.028;2024-02-21T04:54:01;17.33;;;10.93;;
23434;SDS011;11890;45.380;11.028;2024-02-21T04:56:30;19.80;;;11.15;;
23434;SDS011;11890;45.380;11.028;2024-02-21T04:58:58;20.63;;;10.40;;
23434;SDS011;11890;45.380;11.028;2024-02-21T05:01:26;17.95;;;10.85;;
23434;SDS011;11890;45.380;11.028;2024-02-21T05:03:55;15.50;;;9.30;;
23434;SDS011;11890;45.380;11.028;2024-02-21T05:06:23;19.73;;;10.50;;
23434;SDS011;11890;45.380;11.028;2024-02-21T05:08:50;17.42;;;10.00;;
23434;SDS011;11890;45.380;11.028;2024-02-21T05:11:18;18.17;;;9.82;;
23434;SDS011;11890;45.380;11.028;2024-02-21T05:13:46;16.05;;;10.18;;
23434;SDS011;11890;45.380;11.028;2024-02-21T05:16:14;14.18;;;8.85;;
23434;SDS011;11890;45.380;11.028;2024-02-21T05:18:42;15.15;;;9.68;;
23434;SDS011;11890;45.380;11.028;2024-02-21T05:21:10;16.10;;;9.82;;
23434;SDS011;11890;45.380;11.028;2024-02-21T05:23:38;22.73;;;10.23;;
23434;SDS011;11890;45.380;11.028;2024-02-21T05:26:09;16.00;;;9.88;;
23434;SDS011;11890;45.380;11.028;2024-02-21T05:28:36;15.75;;;9.38;;
23434;SDS011;11890;45.380;11.028;2024-02-21T05:31:04;16.83;;;9.65;;
23434;SDS011;11890;45.380;11.028;2024-02-21T05:33:32;17.83;;;9.63;;
23434;SDS011;11890;45.380;11.028;2024-02-21T05:36:00;19.05;;;9.65;;
23434;SDS011;11890;45.380;11.028;2024-02-21T05:38:29;14.75;;;9.15;;
23434;SDS011;11890;45.380;11.028;2024-02-21T05:40:57;14.82;;;8.98;;
23434;SDS011;11890;45.380;11.028;2024-02-21T05:43:25;16.73;;;9.55;;
23434;SDS011;11890;45.380;11.028;2024-02-21T05:45:52;18.88;;;9.80;;
23434;SDS011;11890;45.380;11.028;2024-02-21T05:48:21;20.25;;;9.98;;
23434;SDS011;11890;45.380;11.028;2024-02-21T05:50:49;23.38;;;11.70;;
23434;SDS011;11890;45.380;11.028;2024-02-21T05:53:16;24.98;;;11.55;;
23434;SDS011;11890;45.380;11.028;2024-02-21T05:55:44;22.33;;;10.98;;
23434;SDS011;11890;45.380;11.028;2024-02-21T05:58:12;21.45;;;10.68;;
23434;SDS011;11890;45.380;11.028;2024-02-21T06:00:40;18.92;;;11.05;;
23434;SDS011;11890;45.380;11.028;2024-02-21T06:03:08;23.00;;;11.15;;
23434;SDS011;11890;45.380;11.028;2024-02-21T06:05:39;19.30;;;10.75;;
23434;SDS011;11890;45.380;11.028;2024-02-21T06:08:07;17.50;;;10.95;;
23434;SDS011;11890;45.380;11.028;2024-02-21T06:10:36;19.13;;;10.05;;
23434;SDS011;11890;45.380;11.028;2024-02-21T06:13:03;23.40;;;12.63;;
23434;SDS011;11890;45.380;11.028;2024-02-21T06:15:31;25.00;;;11.45;;
23434;SDS011;11890;45.380;11.028;2024-02-21T06:17:59;25.27;;;12.88;;
23434;SDS011;11890;45.380;11.028;2024-02-21T06:20:27;31.52;;;14.02;;
23434;SDS011;11890;45.380;11.028;2024-02-21T06:22:54;31.25;;;13.85;;
23434;SDS011;11890;45.380;11.028;2024-02-21T06:25:22;37.05;;;14.70;;
23434;SDS011;11890;45.380;11.028;2024-02-21T06:27:50;26.35;;;13.18;;
23434;SDS011;11890;45.380;11.028;2024-02-21T06:30:18;32.92;;;19.60;;
23434;SDS011;11890;45.380;11.028;2024-02-21T06:32:45;28.85;;;14.50;;
23434;SDS011;11890;45.380;11.028;2024-02-21T06:35:13;25.15;;;13.52;;
23434;SDS011;11890;45.380;11.028;2024-02-21T06:37:41;24.95;;;13.50;;
23434;SDS011;11890;45.380;11.028;2024-02-21T06:40:09;27.67;;;13.23;;
23434;SDS011;11890;45.380;11.028;2024-02-21T06:42:37;23.60;;;13.75;;
23434;SDS011;11890;45.380;11.028;2024-02-21T06:45:05;23.13;;;12.13;;
23434;SDS011;11890;45.380;11.028;2024-02-21T06:47:32;22.63;;;11.77;;
23434;SDS011;11890;45.380;11.028;2024-02-21T06:50:00;24.05;;;14.13;;
23434;SDS011;11890;45.380;11.028;2024-02-21T06:52:29;27.60;;;13.38;;
23434;SDS011;11890;45.380;11.028;2024-02-21T06:54:57;21.67;;;12.25;;
23434;SDS011;11890;45.380;11.028;2024-02-21T06:57:25;26.85;;;12.27;;
23434;SDS011;11890;45.380;11.028;2024-02-21T06:59:53;33.30;;;15.23;;
23434;SDS011;11890;45.380;11.028;2024-02-21T07:02:21;39.25;;;16.10;;
23434;SDS011;11890;45.380;11.028;2024-02-21T07:04:49;38.65;;;15.15;;
23434;SDS011;11890;45.380;11.028;2024-02-21T07:07:16;30.42;;;17.08;;
23434;SDS011;11890;45.380;11.028;2024-02-21T07:09:44;33.28;;;15.63;;
23434;SDS011;11890;45.380;11.028;2024-02-21T07:12:15;29.13;;;15.80;;
23434;SDS011;11890;45.380;11.028;2024-02-21T07:14:44;37.85;;;16.58;;
23434;SDS011;11890;45.380;11.028;2024-02-21T07:17:12;36.17;;;16.88;;
23434;SDS011;11890;45.380;11.028;2024-02-21T07:19:40;30.38;;;16.00;;
23434;SDS011;11890;45.380;11.028;2024-02-21T07:22:08;32.40;;;16.15;;
23434;SDS011;11890;45.380;11.028;2024-02-21T07:24:36;30.52;;;14.93;;
23434;SDS011;11890;45.380;11.028;2024-02-21T07:27:04;30.02;;;15.50;;
23434;SDS011;11890;45.380;11.028;2024-02-21T07:29:32;32.03;;;15.55;;
23434;SDS011;11890;45.380;11.028;2024-02-21T07:31:59;29.58;;;14.82;;
23434;SDS011;11890;45.380;11.028;2024-02-21T07:34:27;43.08;;;16.48;;
23434;SDS011;11890;45.380;11.028;2024-02-21T07:36:55;48.17;;;18.95;;
23434;SDS011;11890;45.380;11.028;2024-02-21T07:39:23;42.75;;;17.55;;
23434;SDS011;11890;45.380;11.028;2024-02-21T07:41:51;39.33;;;18.55;;
23434;SDS011;11890;45.380;11.028;2024-02-21T07:44:18;41.20;;;17.38;;
23434;SDS011;11890;45.380;11.028;2024-02-21T07:46:46;32.10;;;17.45;;
23434;SDS011;11890;45.380;11.028;2024-02-21T07:49:14;30.55;;;16.75;;
23434;SDS011;11890;45.380;11.028;2024-02-21T07:51:42;36.38;;;17.85;;
23434;SDS011;11890;45.380;11.028;2024-02-21T07:54:09;36.38;;;20.20;;
23434;SDS011;11890;45.380;11.028;2024-02-21T07:56:41;37.28;;;20.40;;
23434;SDS011;11890;45.380;11.028;2024-02-21T07:59:09;35.50;;;19.35;;
23434;SDS011;11890;45.380;11.028;2024-02-21T08:01:37;42.80;;;21.55;;
23434;SDS011;11890;45.380;11.028;2024-02-21T08:04:05;72.25;;;34.45;;
23434;SDS011;11890;45.380;11.028;2024-02-21T08:06:32;104.53;;;56.88;;
23434;SDS011;11890;45.380;11.028;2024-02-21T08:09:02;67.45;;;33.35;;
23434;SDS011;11890;45.380;11.028;2024-02-21T08:11:29;56.70;;;28.98;;
23434;SDS011;11890;45.380;11.028;2024-02-21T08:13:57;59.83;;;27.80;;
23434;SDS011;11890;45.380;11.028;2024-02-21T08:16:26;56.22;;;28.98;;
23434;SDS011;11890;45.380;11.028;2024-02-21T08:18:54;60.05;;;29.98;;
23434;SDS011;11890;45.380;11.028;2024-02-21T08:21:21;54.38;;;28.10;;
23434;SDS011;11890;45.380;11.028;2024-02-21T08:23:49;48.60;;;24.30;;
23434;SDS011;11890;45.380;11.028;2024-02-21T08:26:18;38.97;;;22.92;;
23434;SDS011;11890;45.380;11.028;2024-02-21T08:28:46;45.22;;;24.98;;
23434;SDS011;11890;45.380;11.028;2024-02-21T08:31:19;39.05;;;23.60;;
23434;SDS011;11890;45.380;11.028;2024-02-21T08:33:47;46.35;;;26.45;;
23434;SDS011;11890;45.380;11.028;2024-02-21T08:36:18;61.13;;;29.10;;
23434;SDS011;11890;45.380;11.028;2024-02-21T08:38:46;49.78;;;27.70;;
23434;SDS011;11890;45.380;11.028;2024-02-21T08:41:14;51.35;;;29.92;;
23434;SDS011;11890;45.380;11.028;2024-02-21T08:43:42;48.25;;;28.63;;
23434;SDS011;11890;45.380;11.028;2024-02-21T08:46:09;49.53;;;29.95;;
23434;SDS011;11890;45.380;11.028;2024-02-21T08:48:37;48.55;;;28.63;;
23434;SDS011;11890;45.380;11.028;2024-02-21T08:51:05;47.10;;;26.92;;
23434;SDS011;11890;45.380;11.028;2024-02-21T08:53:32;47.00;;;28.63;;
23434;SDS011;11890;45.380;11.028;2024-02-21T08:56:00;48.85;;;26.58;;
23434;SDS011;11890;45.380;11.028;2024-02-21T08:58:28;42.65;;;27.17;;
23434;SDS011;11890;45.380;11.028;2024-02-21T09:00:56;45.88;;;27.50;;
23434;SDS011;11890;45.380;11.028;2024-02-21T09:03:24;48.05;;;26.85;;
23434;SDS011;11890;45.380;11.028;2024-02-21T09:05:51;44.35;;;26.50;;
23434;SDS011;11890;45.380;11.028;2024-02-21T09:08:19;45.42;;;26.63;;
23434;SDS011;11890;45.380;11.028;2024-02-21T09:10:48;48.75;;;27.40;;
23434;SDS011;11890;45.380;11.028;2024-02-21T09:13:15;44.35;;;26.85;;
23434;SDS011;11890;45.380;11.028;2024-02-21T09:15:43;47.53;;;26.63;;
23434;SDS011;11890;45.380;11.028;2024-02-21T09:18:11;53.28;;;28.15;;
23434;SDS011;11890;45.380;11.028;2024-02-21T09:20:39;51.67;;;26.10;;
23434;SDS011;11890;45.380;11.028;2024-02-21T09:23:06;42.72;;;25.98;;
23434;SDS011;11890;45.380;11.028;2024-02-21T09:25:34;47.53;;;27.77;;
23434;SDS011;11890;45.380;11.028;2024-02-21T09:28:02;46.28;;;26.08;;
23434;SDS011;11890;45.380;11.028;2024-02-21T09:30:30;41.60;;;26.88;;
23434;SDS011;11890;45.380;11.028;2024-02-21T09:32:58;48.08;;;25.20;;
23434;SDS011;11890;45.380;11.028;2024-02-21T09:35:28;40.65;;;24.55;;
23434;SDS011;11890;45.380;11.028;2024-02-21T09:37:55;38.33;;;22.70;;
23434;SDS011;11890;45.380;11.028;2024-02-21T09:40:24;36.03;;;21.05;;
23434;SDS011;11890;45.380;11.028;2024-02-21T09:42:54;36.28;;;23.83;;
23434;SDS011;11890;45.380;11.028;2024-02-21T09:45:25;36.83;;;24.55;;
23434;SDS011;11890;45.380;11.028;2024-02-21T09:50:40;38.25;;;23.48;;
23434;SDS011;11890;45.380;11.028;2024-02-21T09:53:08;35.20;;;23.25;;
23434;SDS011;11890;45.380;11.028;2024-02-21T09:55:36;33.92;;;21.98;;
23434;SDS011;11890;45.380;11.028;2024-02-21T09:58:07;30.13;;;19.92;;
23434;SDS011;11890;45.380;11.028;2024-02-21T10:00:35;32.22;;;19.48;;
23434;SDS011;11890;45.380;11.028;2024-02-21T10:03:03;31.63;;;20.77;;
23434;SDS011;11890;45.380;11.028;2024-02-21T10:05:36;34.75;;;23.73;;
23434;SDS011;11890;45.380;11.028;2024-02-21T10:08:04;36.40;;;23.60;;
23434;SDS011;11890;45.380;11.028;2024-02-21T10:10:50;35.90;;;20.42;;
23434;SDS011;11890;45.380;11.028;2024-02-21T10:13:24;35.85;;;22.23;;
23434;SDS011;11890;45.380;11.028;2024-02-21T10:16:04;23.10;;;16.52;;
23434;SDS011;11890;45.380;11.028;2024-02-21T10:18:33;28.98;;;19.38;;
23434;SDS011;11890;45.380;11.028;2024-02-21T10:21:05;35.35;;;22.52;;
23434;SDS011;11890;45.380;11.028;2024-02-21T10:23:43;38.83;;;24.40;;
23434;SDS011;11890;45.380;11.028;2024-02-21T10:26:11;34.42;;;23.30;;
23434;SDS011;11890;45.380;11.028;2024-02-21T10:28:39;38.50;;;24.27;;
23434;SDS011;11890;45.380;11.028;2024-02-21T10:31:09;38.17;;;23.98;;
23434;SDS011;11890;45.380;11.028;2024-02-21T10:33:40;40.40;;;24.42;;
23434;SDS011;11890;45.380;11.028;2024-02-21T10:36:08;41.05;;;25.10;;
23434;SDS011;11890;45.380;11.028;2024-02-21T10:38:37;38.42;;;25.63;;
23434;SDS011;11890;45.380;11.028;2024-02-21T10:41:05;44.55;;;26.45;;
23434;SDS011;11890;45.380;11.028;2024-02-21T10:43:39;38.35;;;26.13;;
23434;SDS011;11890;45.380;11.028;2024-02-21T10:46:10;41.20;;;27.77;;
23434;SDS011;11890;45.380;11.028;2024-02-21T10:48:42;40.10;;;27.98;;
23434;SDS011;11890;45.380;11.028;2024-02-21T10:51:15;41.35;;;28.35;;
23434;SDS011;11890;45.380;11.028;2024-02-21T10:58:48;41.88;;;29.65;;
23434;SDS011;11890;45.380;11.028;2024-02-21T11:01:17;49.17;;;32.38;;
23434;SDS011;11890;45.380;11.028;2024-02-21T11:03:46;44.47;;;31.20;;
23434;SDS011;11890;45.380;11.028;2024-02-21T11:06:15;46.85;;;32.80;;
23434;SDS011;11890;45.380;11.028;2024-02-21T11:08:43;46.80;;;34.50;;
23434;SDS011;11890;45.380;11.028;2024-02-21T11:11:14;56.55;;;36.05;;
23434;SDS011;11890;45.380;11.028;2024-02-21T11:14:06;50.25;;;36.20;;
23434;SDS011;11890;45.380;11.028;2024-02-21T11:19:08;53.47;;;36.95;;
23434;SDS011;11890;45.380;11.028;2024-02-21T11:21:38;55.13;;;38.33;;
23434;SDS011;11890;45.380;11.028;2024-02-21T11:24:05;54.55;;;38.10;;
23434;SDS011;11890;45.380;11.028;2024-02-21T11:26:33;58.55;;;39.58;;
23434;SDS011;11890;45.380;11.028;2024-02-21T11:29:01;58.50;;;39.60;;
23434;SDS011;11890;45.380;11.028;2024-02-21T11:31:39;56.08;;;39.80;;
23434;SDS011;11890;45.380;11.028;2024-02-21T11:34:08;57.88;;;39.20;;
23434;SDS011;11890;45.380;11.028;2024-02-21T11:36:39;59.53;;;37.85;;
23434;SDS011;11890;45.380;11.028;2024-02-21T11:39:17;56.55;;;38.38;;
23434;SDS011;11890;45.380;11.028;2024-02-21T11:41:46;56.55;;;37.72;;
23434;SDS011;11890;45.380;11.028;2024-02-21T11:44:14;53.78;;;39.10;;
23434;SDS011;11890;45.380;11.028;2024-02-21T11:46:42;54.63;;;38.67;;
23434;SDS011;11890;45.380;11.028;2024-02-21T11:49:10;57.25;;;38.15;;
23434;SDS011;11890;45.380;11.028;2024-02-21T11:51:38;60.78;;;39.90;;
23434;SDS011;11890;45.380;11.028;2024-02-21T11:54:06;57.47;;;37.20;;
23434;SDS011;11890;45.380;11.028;2024-02-21T11:56:34;57.42;;;39.70;;
23434;SDS011;11890;45.380;11.028;2024-02-21T11:59:02;53.75;;;37.80;;
23434;SDS011;11890;45.380;11.028;2024-02-21T12:01:30;55.13;;;38.35;;
23434;SDS011;11890;45.380;11.028;2024-02-21T12:03:58;52.30;;;38.15;;
23434;SDS011;11890;45.380;11.028;2024-02-21T12:06:26;57.08;;;38.70;;
23434;SDS011;11890;45.380;11.028;2024-02-21T12:08:57;57.08;;;39.20;;
23434;SDS011;11890;45.380;11.028;2024-02-21T12:11:26;55.72;;;39.50;;
23434;SDS011;11890;45.380;11.028;2024-02-21T12:14:00;60.95;;;40.65;;
23434;SDS011;11890;45.380;11.028;2024-02-21T12:16:29;51.55;;;38.28;;
23434;SDS011;11890;45.380;11.028;2024-02-21T12:18:57;53.30;;;38.00;;
23434;SDS011;11890;45.380;11.028;2024-02-21T12:21:26;53.83;;;36.92;;
23434;SDS011;11890;45.380;11.028;2024-02-21T12:23:55;54.05;;;37.65;;
23434;SDS011;11890;45.380;11.028;2024-02-21T12:26:24;46.13;;;34.67;;
23434;SDS011;11890;45.380;11.028;2024-02-21T12:28:53;48.88;;;34.55;;
23434;SDS011;11890;45.380;11.028;2024-02-21T12:31:22;49.30;;;34.88;;
23434;SDS011;11890;45.380;11.028;2024-02-21T12:33:50;47.33;;;33.47;;
23434;SDS011;11890;45.380;11.028;2024-02-21T12:36:20;49.90;;;35.10;;
23434;SDS011;11890;45.380;11.028;2024-02-21T12:38:47;46.92;;;35.42;;
23434;SDS011;11890;45.380;11.028;2024-02-21T12:41:15;50.17;;;35.42;;
23434;SDS011;11890;45.380;11.028;2024-02-21T12:43:43;56.55;;;40.80;;
23434;SDS011;11890;45.380;11.028;2024-02-21T12:46:11;57.03;;;39.08;;
23434;SDS011;11890;45.380;11.028;2024-02-21T12:48:38;52.75;;;36.40;;
23434;SDS011;11890;45.380;11.028;2024-02-21T12:51:06;45.40;;;33.90;;
23434;SDS011;11890;45.380;11.028;2024-02-21T12:53:34;54.80;;;37.03;;
23434;SDS011;11890;45.380;11.028;2024-02-21T12:56:02;50.63;;;36.92;;
23434;SDS011;11890;45.380;11.028;2024-02-21T12:58:32;49.50;;;36.90;;
23434;SDS011;11890;45.380;11.028;2024-02-21T13:00:59;113.50;;;36.78;;
23434;SDS011;11890;45.380;11.028;2024-02-21T13:03:27;35.33;;;23.60;;
23434;SDS011;11890;45.380;11.028;2024-02-21T13:05:59;32.83;;;23.55;;
23434;SDS011;11890;45.380;11.028;2024-02-21T13:08:27;39.15;;;28.10;;
23434;SDS011;11890;45.380;11.028;2024-02-21T13:10:55;40.33;;;28.15;;
23434;SDS011;11890;45.380;11.028;2024-02-21T13:13:23;41.10;;;29.83;;
23434;SDS011;11890;45.380;11.028;2024-02-21T13:15:50;43.05;;;31.65;;
23434;SDS011;11890;45.380;11.028;2024-02-21T13:18:18;40.45;;;28.17;;
23434;SDS011;11890;45.380;11.028;2024-02-21T13:20:47;39.13;;;26.15;;
23434;SDS011;11890;45.380;11.028;2024-02-21T13:23:15;34.78;;;24.40;;
23434;SDS011;11890;45.380;11.028;2024-02-21T13:25:43;33.05;;;24.70;;
23434;SDS011;11890;45.380;11.028;2024-02-21T13:28:12;32.83;;;22.25;;
23434;SDS011;11890;45.380;11.028;2024-02-21T13:30:42;38.17;;;26.98;;
23434;SDS011;11890;45.380;11.028;2024-02-21T13:33:10;45.60;;;25.08;;
23434;SDS011;11890;45.380;11.028;2024-02-21T13:35:39;38.03;;;24.70;;
23434;SDS011;11890;45.380;11.028;2024-02-21T13:38:06;36.25;;;25.17;;
23434;SDS011;11890;45.380;11.028;2024-02-21T13:40:34;37.03;;;26.00;;
23434;SDS011;11890;45.380;11.028;2024-02-21T13:43:02;37.90;;;25.05;;
23434;SDS011;11890;45.380;11.028;2024-02-21T13:45:29;35.30;;;25.33;;
23434;SDS011;11890;45.380;11.028;2024-02-21T13:47:57;40.88;;;26.77;;
23434;SDS011;11890;45.380;11.028;2024-02-21T13:50:29;36.70;;;25.38;;
23434;SDS011;11890;45.380;11.028;2024-02-21T13:52:57;34.47;;;24.08;;
23434;SDS011;11890;45.380;11.028;2024-02-21T13:55:25;37.50;;;25.80;;
23434;SDS011;11890;45.380;11.028;2024-02-21T13:57:53;34.83;;;24.77;;
23434;SDS011;11890;45.380;11.028;2024-02-21T14:00:21;35.58;;;24.02;;
23434;SDS011;11890;45.380;11.028;2024-02-21T14:02:49;37.05;;;24.95;;
23434;SDS011;11890;45.380;11.028;2024-02-21T14:05:16;35.40;;;23.25;;
23434;SDS011;11890;45.380;11.028;2024-02-21T14:07:44;37.50;;;25.42;;
23434;SDS011;11890;45.380;11.028;2024-02-21T14:10:12;39.13;;;26.95;;
23434;SDS011;11890;45.380;11.028;2024-02-21T14:12:39;41.03;;;27.05;;
23434;SDS011;11890;45.380;11.028;2024-02-21T14:15:11;37.80;;;26.85;;
23434;SDS011;11890;45.380;11.028;2024-02-21T14:17:39;39.40;;;26.90;;
23434;SDS011;11890;45.380;11.028;2024-02-21T14:20:07;41.25;;;27.95;;
23434;SDS011;11890;45.380;11.028;2024-02-21T14:22:35;39.78;;;27.42;;
23434;SDS011;11890;45.380;11.028;2024-02-21T14:25:04;35.80;;;24.75;;
23434;SDS011;11890;45.380;11.028;2024-02-21T14:27:32;30.25;;;21.38;;
23434;SDS011;11890;45.380;11.028;2024-02-21T14:30:00;36.08;;;22.45;;